createdAt,value
2019-03-13T00:00:07.919Z,7.40
2019-03-13T00:02:35.550Z,7.40
2019-03-13T00:05:03.458Z,7.30
2019-03-13T00:07:31.090Z,7.30
2019-03-13T00:09:58.732Z,7.30
2019-03-13T00:12:26.366Z,7.40
2019-03-13T00:14:54.002Z,7.40
2019-03-13T00:17:21.630Z,7.60
2019-03-13T00:19:49.270Z,7.60
2019-03-13T00:22:18.901Z,7.60
2019-03-13T00:24:46.535Z,7.50
2019-03-13T00:27:14.163Z,7.60
2019-03-13T00:29:41.802Z,7.70
2019-03-13T00:32:11.303Z,7.70
2019-03-13T00:34:38.947Z,7.70
2019-03-13T00:37:06.568Z,7.80
2019-03-13T00:39:34.209Z,7.80
2019-03-13T00:42:01.850Z,7.70
2019-03-13T00:44:29.478Z,7.80
2019-03-13T00:46:57.116Z,7.70
2019-03-13T00:49:24.746Z,7.60
2019-03-13T00:51:52.394Z,7.60
2019-03-13T00:54:20.017Z,7.60
2019-03-13T00:56:47.654Z,7.70
2019-03-13T00:59:15.280Z,7.70
2019-03-13T01:02:02.635Z,7.70
2019-03-13T01:04:31.914Z,7.70
2019-03-13T01:07:00.718Z,7.70
2019-03-13T01:09:28.511Z,7.70
2019-03-13T01:11:57.136Z,7.80
2019-03-13T01:14:24.767Z,7.90
2019-03-13T01:16:52.406Z,7.90
2019-03-13T01:19:20.031Z,8.00
2019-03-13T01:21:47.675Z,8.20
2019-03-13T01:24:21.122Z,8.20
2019-03-13T01:26:48.762Z,8.20
2019-03-13T01:29:16.443Z,8.40
2019-03-13T01:31:45.751Z,8.40
2019-03-13T01:34:33.086Z,8.40
2019-03-13T01:37:00.730Z,8.40
2019-03-13T01:39:28.361Z,8.50
2019-03-13T01:41:56.010Z,8.40
2019-03-13T01:44:23.633Z,8.30
2019-03-13T01:46:51.346Z,8.30
2019-03-13T01:49:18.976Z,8.20
2019-03-13T01:51:46.618Z,8.20
2019-03-13T01:54:20.027Z,8.20
2019-03-13T01:56:47.662Z,8.10
2019-03-13T01:59:15.296Z,8.10
2019-03-13T02:01:42.939Z,7.70
2019-03-13T02:04:11.530Z,7.10
2019-03-13T02:06:39.226Z,6.50
2019-03-13T02:09:07.330Z,6.20
2019-03-13T02:11:34.954Z,6.20
2019-03-13T02:14:02.621Z,6.00
2019-03-13T02:16:30.302Z,6.00
2019-03-13T02:18:57.937Z,5.90
2019-03-13T02:23:52.933Z,5.90
2019-03-13T02:26:20.570Z,5.90
2019-03-13T02:28:48.202Z,5.80
2019-03-13T02:31:15.831Z,5.80
2019-03-13T02:33:48.771Z,5.80
2019-03-13T02:36:16.411Z,5.70
2019-03-13T02:38:44.061Z,5.80
2019-03-13T02:41:11.683Z,5.80
2019-03-13T02:43:39.324Z,5.80
2019-03-13T02:46:06.952Z,5.80
2019-03-13T02:48:34.596Z,5.70
2019-03-13T02:51:02.215Z,5.70
2019-03-13T02:53:33.043Z,5.60
2019-03-13T02:56:00.654Z,5.70
2019-03-13T02:58:28.299Z,5.70
2019-03-13T03:00:57.640Z,5.70
2019-03-13T03:03:28.924Z,5.70
2019-03-13T03:05:57.884Z,5.60
2019-03-13T03:08:25.529Z,5.60
2019-03-13T03:10:53.151Z,5.60
2019-03-13T03:13:21.707Z,5.60
2019-03-13T03:15:49.336Z,5.50
2019-03-13T03:18:16.968Z,5.60
2019-03-13T03:20:44.602Z,5.60
2019-03-13T03:23:12.240Z,5.50
2019-03-13T03:25:39.878Z,5.50
2019-03-13T03:28:07.507Z,5.40
2019-03-13T03:30:35.161Z,5.30
2019-03-13T03:33:05.943Z,5.30
2019-03-13T03:35:33.581Z,5.30
2019-03-13T03:38:01.290Z,5.20
2019-03-13T03:40:28.924Z,5.20
2019-03-13T03:42:58.528Z,5.10
2019-03-13T03:45:26.349Z,5.10
2019-03-13T03:47:56.116Z,5.00
2019-03-13T03:50:23.783Z,4.90
2019-03-13T03:55:20.743Z,4.80
2019-03-13T03:57:48.363Z,4.80
2019-03-13T04:00:17.711Z,4.80
2019-03-13T04:02:45.447Z,4.70
2019-03-13T04:05:13.161Z,4.70
2019-03-13T04:07:40.791Z,4.70
2019-03-13T04:10:09.403Z,4.70
2019-03-13T04:12:37.030Z,4.70
2019-03-13T04:15:06.408Z,4.60
2019-03-13T04:17:34.042Z,4.60
2019-03-13T04:20:01.667Z,4.50
2019-03-13T04:22:29.311Z,4.40
2019-03-13T04:24:58.507Z,4.40
2019-03-13T04:27:26.146Z,4.40
2019-03-13T04:29:53.792Z,4.40
2019-03-13T04:32:21.495Z,4.40
2019-03-13T04:34:49.127Z,4.30
2019-03-13T04:37:16.766Z,4.30
2019-03-13T04:39:44.386Z,4.30
2019-03-13T04:42:12.030Z,4.30
2019-03-13T04:44:39.666Z,4.30
2019-03-13T04:47:07.297Z,4.30
2019-03-13T04:49:34.952Z,4.20
2019-03-13T04:52:02.595Z,4.20
2019-03-13T04:54:30.218Z,4.30
2019-03-13T04:56:57.858Z,4.30
2019-03-13T04:59:25.486Z,4.30
2019-03-13T05:01:53.122Z,4.30
2019-03-13T05:04:20.745Z,4.20
2019-03-13T05:06:48.391Z,4.10
2019-03-13T05:09:16.017Z,4.10
2019-03-13T05:11:43.660Z,4.00
2019-03-13T05:14:12.242Z,4.00
2019-03-13T05:16:39.892Z,4.00
2019-03-13T05:19:07.515Z,4.00
2019-03-13T05:21:35.142Z,4.00
2019-03-13T05:24:02.787Z,4.00
2019-03-13T05:26:30.414Z,4.10
2019-03-13T05:28:58.047Z,3.90
2019-03-13T05:31:25.681Z,3.90
2019-03-13T05:33:53.323Z,3.70
2019-03-13T05:36:20.960Z,3.60
2019-03-13T05:38:48.602Z,3.50
2019-03-13T05:41:16.230Z,3.40
2019-03-13T05:43:43.877Z,3.30
2019-03-13T05:46:11.508Z,3.30
2019-03-13T05:48:39.149Z,3.20
2019-03-13T05:51:06.775Z,3.20
2019-03-13T05:53:34.419Z,3.20
2019-03-13T05:56:02.046Z,3.30
2019-03-13T05:58:29.690Z,3.30
2019-03-13T06:00:57.322Z,3.40
2019-03-13T06:03:24.958Z,3.50
2019-03-13T06:05:52.585Z,3.60
2019-03-13T06:08:20.231Z,3.70
2019-03-13T06:10:47.862Z,3.70
2019-03-13T06:13:15.502Z,3.70
2019-03-13T06:15:43.175Z,3.60
2019-03-13T06:18:10.817Z,3.60
2019-03-13T06:20:38.443Z,3.70
2019-03-13T06:23:06.074Z,3.70
2019-03-13T06:25:33.720Z,3.70
2019-03-13T06:28:01.347Z,3.70
2019-03-13T06:30:28.985Z,3.70
2019-03-13T06:32:56.622Z,3.70
2019-03-13T06:35:24.277Z,3.80
2019-03-13T06:37:51.892Z,3.90
2019-03-13T06:40:20.311Z,4.00
2019-03-13T06:42:47.959Z,4.00
2019-03-13T06:45:15.870Z,4.00
2019-03-13T06:47:43.486Z,4.10
2019-03-13T06:50:12.498Z,4.20
2019-03-13T06:52:40.129Z,4.20
2019-03-13T06:55:07.946Z,4.30
2019-03-13T06:57:35.577Z,4.40
2019-03-13T07:00:22.114Z,4.40
2019-03-13T07:03:00.123Z,4.40
2019-03-13T07:05:29.394Z,4.40
2019-03-13T07:08:14.971Z,4.50
2019-03-13T07:10:46.905Z,4.60
2019-03-13T07:13:18.576Z,4.60
2019-03-13T07:15:47.857Z,4.70
2019-03-13T07:18:23.008Z,4.70
2019-03-13T07:21:07.301Z,4.80
2019-03-13T07:23:42.552Z,5.00
2019-03-13T07:26:14.562Z,5.20
2019-03-13T07:28:43.834Z,5.20
2019-03-13T07:31:13.114Z,5.20
2019-03-13T07:33:59.114Z,5.40
2019-03-13T07:36:31.090Z,5.80
2019-03-13T07:39:00.373Z,5.80
2019-03-13T07:41:46.208Z,5.70
2019-03-13T07:44:23.132Z,5.70
2019-03-13T07:46:55.121Z,5.70
2019-03-13T07:49:40.702Z,5.70
2019-03-13T07:52:24.820Z,5.70
2019-03-13T07:55:10.490Z,6.00
2019-03-13T07:57:46.019Z,6.10
2019-03-13T08:00:21.029Z,6.20
2019-03-13T08:02:59.274Z,6.30
2019-03-13T08:05:28.543Z,6.50
2019-03-13T08:08:03.775Z,6.50
2019-03-13T08:10:38.984Z,6.60
2019-03-13T08:13:11.240Z,6.60
2019-03-13T08:15:43.438Z,6.80
2019-03-13T08:18:12.728Z,7.10
2019-03-13T08:20:41.991Z,7.10
2019-03-13T08:23:26.599Z,7.00
2019-03-13T08:25:55.867Z,6.80
2019-03-13T08:28:25.146Z,6.60
2019-03-13T08:31:09.463Z,6.60
2019-03-13T08:34:05.646Z,6.60
2019-03-13T08:36:40.519Z,6.50
2019-03-13T08:39:08.894Z,6.50
2019-03-13T08:41:44.034Z,6.50
2019-03-13T08:44:22.478Z,6.40
2019-03-13T08:46:51.750Z,6.40
2019-03-13T08:49:37.077Z,6.30
2019-03-13T08:52:24.610Z,6.30
2019-03-13T08:55:02.862Z,6.20
2019-03-13T08:57:50.486Z,6.30
2019-03-13T09:00:22.458Z,6.50
2019-03-13T09:02:52.682Z,6.70
2019-03-13T09:05:21.968Z,6.70
2019-03-13T09:08:09.584Z,6.60
2019-03-13T09:10:55.331Z,6.70
2019-03-13T09:13:26.553Z,6.70
2019-03-13T09:15:55.831Z,6.80
2019-03-13T09:18:27.930Z,6.80
2019-03-13T09:20:57.214Z,6.80
2019-03-13T09:23:44.838Z,6.60
2019-03-13T09:26:17.123Z,6.60
2019-03-13T09:29:04.823Z,6.70
2019-03-13T09:31:42.733Z,6.60
2019-03-13T09:34:26.993Z,6.70
2019-03-13T09:36:58.714Z,6.70
2019-03-13T09:39:27.994Z,6.70
2019-03-13T09:41:59.946Z,6.80
2019-03-13T09:44:31.944Z,6.70
2019-03-13T09:47:07.142Z,6.80
2019-03-13T09:49:45.620Z,6.50
2019-03-13T09:52:17.474Z,6.40
2019-03-13T09:54:49.411Z,6.80
2019-03-13T09:57:24.146Z,7.20
2019-03-13T09:59:53.418Z,7.40
2019-03-13T10:02:22.691Z,7.60
2019-03-13T10:04:51.981Z,7.50
2019-03-13T10:07:37.782Z,7.80
2019-03-13T10:10:10.223Z,7.50
2019-03-13T10:12:58.798Z,7.10
2019-03-13T10:15:46.099Z,7.10
2019-03-13T10:18:15.367Z,7.40
2019-03-13T10:20:59.994Z,7.60
2019-03-13T10:23:35.310Z,7.80
2019-03-13T10:26:22.614Z,7.90
2019-03-13T10:29:00.735Z,7.60
2019-03-13T10:31:35.819Z,7.40
2019-03-13T10:34:14.288Z,7.50
2019-03-13T10:36:50.728Z,7.40
2019-03-13T10:39:22.966Z,6.80
2019-03-13T10:42:08.550Z,5.90
2019-03-13T10:44:40.535Z,4.80
2019-03-13T10:47:09.814Z,4.70
2019-03-13T10:49:57.103Z,4.90
2019-03-13T10:52:46.734Z,5.10
2019-03-13T10:55:32.464Z,5.10
2019-03-13T10:58:07.402Z,5.30
2019-03-13T11:00:36.679Z,5.50
2019-03-13T11:03:06.059Z,6.00
2019-03-13T11:05:35.327Z,6.60
2019-03-13T11:08:04.604Z,7.00
2019-03-13T11:10:46.057Z,6.80
2019-03-13T11:13:21.434Z,6.70
2019-03-13T11:16:00.003Z,6.60
2019-03-13T11:18:29.290Z,6.50
2019-03-13T11:21:04.195Z,6.40
2019-03-13T11:23:33.475Z,6.60
2019-03-13T11:26:02.811Z,6.60
2019-03-13T11:28:44.324Z,6.70
2019-03-13T11:31:16.134Z,6.80
2019-03-13T11:34:02.903Z,6.80
2019-03-13T11:36:34.993Z,6.90
2019-03-13T11:39:18.390Z,6.70
2019-03-13T11:42:02.595Z,6.80
2019-03-13T11:44:31.867Z,6.80
2019-03-13T11:47:10.269Z,6.90
2019-03-13T11:49:57.894Z,6.80
2019-03-13T11:52:45.286Z,6.70
2019-03-13T11:55:14.726Z,6.70
2019-03-13T11:57:46.553Z,6.90
2019-03-13T12:00:17.286Z,7.00
2019-03-13T12:02:46.570Z,6.90
2019-03-13T12:05:15.847Z,7.00
2019-03-13T12:07:57.127Z,7.10
2019-03-13T12:10:42.950Z,7.20
2019-03-13T12:13:14.991Z,7.10
2019-03-13T12:15:47.086Z,7.20
2019-03-13T12:18:32.572Z,7.20
2019-03-13T12:21:04.538Z,7.20
2019-03-13T12:23:46.625Z,7.20
2019-03-13T12:26:16.021Z,7.20
2019-03-13T12:29:01.793Z,7.30
2019-03-13T12:31:36.794Z,7.50
2019-03-13T12:34:07.018Z,8.40
2019-03-13T12:39:11.527Z,10.10
2019-03-13T12:41:43.458Z,10.10
2019-03-13T12:44:17.737Z,10.00
2019-03-13T12:47:03.678Z,10.60
2019-03-13T12:49:49.394Z,9.90
2019-03-13T12:52:38.378Z,9.80
2019-03-13T12:55:27.250Z,10.60
2019-03-13T12:58:02.606Z,10.70
2019-03-13T13:00:44.225Z,9.80
2019-03-13T13:03:13.478Z,10.20
2019-03-13T13:05:54.770Z,10.10
2019-03-13T13:08:40.322Z,9.60
2019-03-13T13:11:12.295Z,9.20
2019-03-13T13:13:47.329Z,8.80
2019-03-13T13:16:32.950Z,8.60
2019-03-13T13:19:00.586Z,8.50
2019-03-13T13:21:28.214Z,8.30
2019-03-13T13:24:01.918Z,8.20
2019-03-13T13:26:29.554Z,8.30
2019-03-13T13:28:57.210Z,8.20
2019-03-13T13:31:24.842Z,8.20
2019-03-13T13:33:52.474Z,8.10
2019-03-13T13:36:20.102Z,8.10
2019-03-13T13:38:47.730Z,8.20
2019-03-13T13:41:15.437Z,8.20
2019-03-13T13:43:44.020Z,8.20
2019-03-13T13:46:22.379Z,8.10
2019-03-13T13:48:50.006Z,8.10
2019-03-13T13:51:17.647Z,8.40
2019-03-13T13:53:45.266Z,8.40
2019-03-13T13:56:12.921Z,8.30
2019-03-13T13:58:40.546Z,8.30
2019-03-13T14:01:08.191Z,8.90
2019-03-13T14:03:36.778Z,9.00
2019-03-13T14:06:04.495Z,9.10
2019-03-13T14:08:32.118Z,8.90
2019-03-13T14:10:59.906Z,9.40
2019-03-13T14:15:54.898Z,9.60
2019-03-13T14:18:22.531Z,9.20
2019-03-13T14:20:50.170Z,9.10
2019-03-13T14:25:46.142Z,8.20
2019-03-13T14:28:13.767Z,8.40
2019-03-13T14:30:41.398Z,8.90
2019-03-13T14:33:09.035Z,9.40
2019-03-13T14:35:36.676Z,9.00
2019-03-13T14:38:04.298Z,8.80
2019-03-13T14:40:31.962Z,8.50
2019-03-13T14:43:01.537Z,8.40
2019-03-13T14:45:28.959Z,8.20
2019-03-13T14:47:56.587Z,8.10
2019-03-13T14:50:24.290Z,8.00
2019-03-13T14:52:52.976Z,8.00
2019-03-13T14:55:20.667Z,7.90
2019-03-13T14:57:48.347Z,7.90
2019-03-13T15:00:20.307Z,7.90
2019-03-13T15:02:48.025Z,7.90
2019-03-13T15:05:15.723Z,7.90
2019-03-13T15:07:43.430Z,7.90
2019-03-13T15:10:12.599Z,8.00
2019-03-13T15:12:43.190Z,8.10
2019-03-13T15:15:21.353Z,8.10
2019-03-13T15:17:48.989Z,8.20
2019-03-13T15:20:17.602Z,8.20
2019-03-13T15:22:45.319Z,8.10
2019-03-13T15:25:13.223Z,8.10
2019-03-13T15:27:40.866Z,8.00
2019-03-13T15:30:10.039Z,8.00
2019-03-13T15:32:48.459Z,8.00
2019-03-13T15:35:16.087Z,8.00
2019-03-13T15:37:43.726Z,8.00
2019-03-13T15:40:12.910Z,7.90
2019-03-13T15:42:46.411Z,7.90
2019-03-13T15:45:15.579Z,7.90
2019-03-13T15:47:43.215Z,7.80
2019-03-13T15:50:11.913Z,7.70
2019-03-13T15:52:45.126Z,7.70
2019-03-13T15:55:13.634Z,7.60
2019-03-13T15:57:41.267Z,7.60
2019-03-13T16:00:10.774Z,7.50
2019-03-13T16:02:38.410Z,7.40
2019-03-13T16:05:06.314Z,7.30
2019-03-13T16:07:33.937Z,7.30
2019-03-13T16:10:03.128Z,7.30
2019-03-13T16:12:34.055Z,7.30
2019-03-13T16:15:01.698Z,7.20
2019-03-13T16:17:29.322Z,7.20
2019-03-13T16:19:56.970Z,7.10
2019-03-13T16:22:26.558Z,7.10
2019-03-13T16:24:54.194Z,7.10
2019-03-13T16:27:21.813Z,7.00
2019-03-13T16:29:49.454Z,7.00
2019-03-13T16:32:24.013Z,6.90
2019-03-13T16:34:51.658Z,6.80
2019-03-13T16:37:19.287Z,6.50
2019-03-13T16:39:46.934Z,6.10
2019-03-13T16:42:20.321Z,5.80
2019-03-13T16:44:47.966Z,5.70
2019-03-13T16:47:15.601Z,5.60
2019-03-13T16:49:43.247Z,5.60
2019-03-13T16:52:15.406Z,5.60
2019-03-13T16:54:43.055Z,5.50
2019-03-13T16:57:10.684Z,5.50
2019-03-13T16:59:38.332Z,5.40
2019-03-13T17:02:05.955Z,5.40
2019-03-13T17:04:33.578Z,5.30
2019-03-13T17:07:01.287Z,5.30
2019-03-13T17:09:28.919Z,5.30
2019-03-13T17:11:56.564Z,5.20
2019-03-13T17:14:24.203Z,5.20
2019-03-13T17:16:51.847Z,5.20
2019-03-13T17:19:19.470Z,5.20
2019-03-13T17:21:47.117Z,5.10
2019-03-13T17:24:15.694Z,5.10
2019-03-13T17:26:43.355Z,5.10
2019-03-13T17:29:10.969Z,5.00
2019-03-13T17:31:38.610Z,5.00
2019-03-13T17:34:06.239Z,5.00
2019-03-13T17:36:33.882Z,5.00
2019-03-13T17:39:03.522Z,4.90
2019-03-13T17:41:31.166Z,4.90
2019-03-13T17:44:04.566Z,4.90
2019-03-13T17:46:32.215Z,4.90
2019-03-13T17:48:59.858Z,4.90
2019-03-13T17:51:27.520Z,4.90
2019-03-13T17:54:02.174Z,4.90
2019-03-13T17:56:29.818Z,4.90
2019-03-13T17:58:57.450Z,4.90
2019-03-13T18:01:25.090Z,4.80
2019-03-13T18:03:52.719Z,4.80
2019-03-13T18:06:20.361Z,4.70
2019-03-13T18:08:47.997Z,4.70
2019-03-13T18:11:15.631Z,4.60
2019-03-13T18:13:43.274Z,4.60
2019-03-13T18:16:10.906Z,4.60
2019-03-13T18:18:38.542Z,4.60
2019-03-13T18:21:06.181Z,4.60
2019-03-13T18:23:34.751Z,4.60
2019-03-13T18:26:02.449Z,4.60
2019-03-13T18:28:30.092Z,4.60
2019-03-13T18:30:57.724Z,4.60
2019-03-13T18:33:26.309Z,4.60
2019-03-13T18:35:53.939Z,4.60
2019-03-13T18:38:21.578Z,4.70
2019-03-13T18:40:49.210Z,4.70
2019-03-13T18:43:16.850Z,4.70
2019-03-13T18:45:44.542Z,4.80
2019-03-13T18:48:12.182Z,5.00
2019-03-13T18:50:39.816Z,4.90
2019-03-13T18:53:08.447Z,5.00
2019-03-13T18:55:36.142Z,5.00
2019-03-13T18:58:04.167Z,5.00
2019-03-13T19:00:33.026Z,5.00
2019-03-13T19:03:00.725Z,5.00
2019-03-13T19:05:29.898Z,5.10
2019-03-13T19:07:57.797Z,5.10
2019-03-13T19:10:26.406Z,5.20
2019-03-13T19:12:54.039Z,5.20
2019-03-13T19:15:22.548Z,5.10
2019-03-13T19:17:50.201Z,5.10
2019-03-13T19:20:18.909Z,5.10
2019-03-13T19:22:47.511Z,5.20
2019-03-13T19:25:15.330Z,5.10
2019-03-13T19:27:43.022Z,5.10
2019-03-13T19:30:12.214Z,5.10
2019-03-13T19:32:40.814Z,5.10
2019-03-13T19:35:08.660Z,5.20
2019-03-13T19:37:36.330Z,5.20
2019-03-13T19:40:05.149Z,5.20
2019-03-13T19:42:36.675Z,5.20
2019-03-13T19:45:03.955Z,5.20
2019-03-13T19:47:31.583Z,5.30
2019-03-13T19:49:59.236Z,5.30
2019-03-13T19:52:26.866Z,5.30
2019-03-13T19:54:54.510Z,5.40
2019-03-13T19:57:22.187Z,5.40
2019-03-13T19:59:49.867Z,5.40
2019-03-13T20:02:18.484Z,5.40
2019-03-13T20:04:47.569Z,5.30
2019-03-13T20:07:15.636Z,5.30
2019-03-13T20:09:43.271Z,5.30
2019-03-13T20:12:14.066Z,5.30
2019-03-13T20:14:40.839Z,5.30
2019-03-13T20:17:08.484Z,5.30
2019-03-13T20:19:36.115Z,5.20
2019-03-13T20:22:03.763Z,5.10
2019-03-13T20:24:31.436Z,5.00
2019-03-13T20:26:59.057Z,5.00
2019-03-13T20:29:26.708Z,4.90
2019-03-13T20:31:54.349Z,4.90
2019-03-13T20:34:21.985Z,4.80
2019-03-13T20:36:49.631Z,4.70
2019-03-13T20:39:17.258Z,4.70
2019-03-13T20:41:44.897Z,4.60
2019-03-13T20:44:12.539Z,4.60
2019-03-13T20:46:40.179Z,4.60
2019-03-13T20:49:07.806Z,4.50
2019-03-13T20:51:35.454Z,4.50
2019-03-13T20:54:03.091Z,4.50
2019-03-13T20:56:30.746Z,4.50
2019-03-13T20:58:58.379Z,4.50
2019-03-13T21:01:26.021Z,4.50
2019-03-13T21:03:53.647Z,4.50
2019-03-13T21:06:21.289Z,4.60
2019-03-13T21:08:48.913Z,4.60
2019-03-13T21:11:16.601Z,4.60
2019-03-13T21:13:44.219Z,4.60
2019-03-13T21:16:12.261Z,4.60
2019-03-13T21:18:39.880Z,4.50
2019-03-13T21:21:07.512Z,4.50
2019-03-13T21:23:37.061Z,4.50
2019-03-13T21:26:04.746Z,4.50
2019-03-13T21:28:32.374Z,4.40
2019-03-13T21:31:00.007Z,4.40
2019-03-13T21:33:27.697Z,4.40
2019-03-13T21:35:55.311Z,4.30
2019-03-13T21:38:22.946Z,4.30
2019-03-13T21:40:50.573Z,4.30
2019-03-13T21:43:19.206Z,4.30
2019-03-13T21:45:46.883Z,4.30
2019-03-13T21:48:14.525Z,4.30
2019-03-13T21:50:42.210Z,4.30
2019-03-13T21:53:09.837Z,4.30
2019-03-13T21:55:37.464Z,4.20
2019-03-13T21:58:05.111Z,4.20
2019-03-13T22:00:32.745Z,4.10
2019-03-13T22:03:00.384Z,4.00
2019-03-13T22:05:28.018Z,3.90
2019-03-13T22:07:55.672Z,3.80
2019-03-13T22:10:23.306Z,3.80
2019-03-13T22:12:51.020Z,3.70
2019-03-13T22:15:21.726Z,3.60
2019-03-13T22:17:49.351Z,3.70
2019-03-13T22:20:17.354Z,3.60
2019-03-13T22:22:45.047Z,3.60
2019-03-13T22:25:13.665Z,3.50
2019-03-13T22:27:41.306Z,3.50
2019-03-13T22:30:16.236Z,3.50
2019-03-13T22:32:43.934Z,3.50
2019-03-13T22:35:11.590Z,3.50
2019-03-13T22:37:39.201Z,3.50
2019-03-13T22:40:08.519Z,3.50
2019-03-13T22:42:38.103Z,3.50
2019-03-13T22:45:07.618Z,3.60
2019-03-13T22:47:42.729Z,3.60
2019-03-13T22:50:12.013Z,3.60
2019-03-13T22:52:40.639Z,3.70
2019-03-13T22:55:08.658Z,3.70
2019-03-13T22:57:36.353Z,3.70
2019-03-13T23:00:25.364Z,3.70
2019-03-13T23:02:53.304Z,3.80
2019-03-13T23:05:21.345Z,3.80
2019-03-13T23:07:48.982Z,3.90
2019-03-13T23:10:32.496Z,3.90
2019-03-13T23:13:00.134Z,4.00
2019-03-13T23:15:27.779Z,4.00
2019-03-13T23:17:55.404Z,4.00
2019-03-13T23:20:23.037Z,4.00
2019-03-13T23:22:50.669Z,4.00
2019-03-13T23:25:18.307Z,4.00
2019-03-13T23:27:45.935Z,4.00
2019-03-13T23:30:13.589Z,4.00
2019-03-13T23:32:41.227Z,4.00
2019-03-13T23:35:08.936Z,3.90
2019-03-13T23:37:37.410Z,3.90
2019-03-13T23:40:06.146Z,3.90
2019-03-13T23:42:33.784Z,3.80
2019-03-13T23:45:01.419Z,3.70
2019-03-13T23:47:29.063Z,3.70
2019-03-13T23:49:56.695Z,3.70
2019-03-13T23:52:25.990Z,3.70
2019-03-13T23:54:53.771Z,3.70
2019-03-13T23:57:21.418Z,3.70
2019-03-13T23:59:49.044Z,3.70
